createdAt,value
2023-02-11T00:00:00.927Z,83.6
2023-02-11T00:10:00.728Z,84.0
2023-02-11T00:20:00.821Z,84.6
2023-02-11T00:30:00.555Z,84.5
2023-02-11T00:40:00.556Z,85.6
2023-02-11T00:50:00.608Z,79.5
2023-02-11T01:00:00.588Z,77.4
2023-02-11T01:10:00.556Z,78.4
2023-02-11T01:20:00.564Z,77.2
2023-02-11T01:30:00.559Z,76.9
2023-02-11T01:40:00.561Z,75.9
2023-02-11T01:50:00.555Z,75.5
2023-02-11T02:00:00.782Z,75.3
2023-02-11T02:10:00.771Z,75.4
2023-02-11T02:20:00.781Z,76.6
2023-02-11T02:30:00.811Z,77.7
2023-02-11T02:40:00.733Z,78.7
2023-02-11T02:50:00.641Z,80.4
2023-02-11T03:00:00.566Z,80.7
2023-02-11T03:10:00.545Z,81.4
2023-02-11T03:20:00.681Z,81.9
2023-02-11T03:30:00.541Z,81.8
2023-02-11T03:40:00.584Z,81.6
2023-02-11T03:50:00.544Z,81.4
2023-02-11T04:00:00.552Z,81.3
2023-02-11T04:10:00.555Z,82.2
2023-02-11T04:20:00.555Z,81.9
2023-02-11T04:30:00.790Z,82.3
2023-02-11T04:40:00.866Z,83.0
2023-02-11T04:50:01.453Z,82.8
2023-02-11T05:00:00.929Z,82.2
2023-02-11T05:10:00.812Z,82.0
2023-02-11T05:20:00.752Z,81.5
2023-02-11T05:30:00.792Z,81.4
2023-02-11T05:40:01.023Z,81.9
2023-02-11T05:50:00.757Z,82.1
2023-02-11T06:00:00.537Z,82.1
2023-02-11T06:10:00.665Z,81.9
2023-02-11T06:20:00.641Z,82.1
2023-02-11T06:30:00.624Z,82.4
2023-02-11T06:40:00.559Z,81.4
2023-02-11T06:50:00.559Z,81.1
2023-02-11T07:00:00.556Z,77.3
2023-02-11T07:10:00.577Z,78.9
2023-02-11T07:20:00.542Z,75.2
2023-02-11T07:30:00.562Z,69.3
2023-02-11T07:40:00.696Z,69.1
2023-02-11T07:50:00.800Z,68.9
2023-02-11T08:00:00.809Z,69.2
2023-02-11T08:10:00.817Z,66.3
2023-02-11T08:20:00.774Z,65.7
2023-02-11T08:30:00.775Z,64.8
2023-02-11T08:40:00.895Z,65.1
2023-02-11T09:00:00.566Z,60.1
2023-02-11T09:10:00.551Z,58.8
2023-02-11T09:20:00.563Z,55.4
2023-02-11T09:30:00.724Z,54.8
2023-02-11T09:40:01.774Z,52.3
2023-02-11T09:50:00.793Z,52.3
2023-02-11T10:00:00.921Z,54.5
2023-02-11T10:10:00.829Z,54.3
2023-02-11T10:20:00.849Z,56.2
2023-02-11T10:30:00.633Z,50.9
2023-02-11T10:40:00.752Z,47.5
2023-02-11T10:50:00.560Z,49.7
2023-02-11T11:00:00.558Z,51.2
2023-02-11T11:10:00.595Z,52.0
2023-02-11T11:20:00.555Z,51.1
2023-02-11T11:30:00.580Z,50.3
2023-02-11T11:40:00.551Z,49.2
2023-02-11T11:50:00.546Z,49.2
2023-02-11T12:00:01.144Z,50.1
2023-02-11T12:10:00.866Z,49.1
2023-02-11T12:20:01.032Z,45.5
2023-02-11T12:30:01.418Z,41.4
2023-02-11T12:40:01.147Z,41.7
2023-02-11T12:50:00.578Z,41.3
2023-02-11T13:00:00.608Z,38.8
2023-02-11T13:10:00.555Z,38.7
2023-02-11T13:20:00.554Z,40.0
2023-02-11T13:30:03.795Z,39.4
2023-02-11T13:40:00.572Z,39.5
2023-02-11T13:50:00.563Z,40.9
2023-02-11T14:00:00.612Z,41.4
2023-02-11T14:10:00.541Z,41.7
2023-02-11T14:20:00.785Z,43.2
2023-02-11T14:30:00.981Z,44.7
2023-02-11T14:40:00.830Z,45.8
2023-02-11T14:50:00.746Z,46.9
2023-02-11T15:00:01.377Z,47.9
2023-02-11T15:10:00.740Z,48.2
2023-02-11T15:20:00.848Z,49.0
2023-02-11T15:30:00.581Z,50.4
2023-02-11T15:40:00.570Z,51.0
2023-02-11T15:50:00.611Z,52.7
2023-02-11T16:00:00.554Z,53.3
2023-02-11T16:10:00.583Z,53.8
2023-02-11T16:20:00.563Z,54.1
2023-02-11T16:30:00.590Z,55.1
2023-02-11T16:40:00.542Z,55.7
2023-02-11T16:50:00.601Z,56.9
2023-02-11T17:00:01.013Z,55.2
2023-02-11T17:10:00.866Z,55.6
2023-02-11T17:20:00.895Z,54.7
2023-02-11T17:30:00.835Z,54.5
2023-02-11T17:40:00.843Z,54.7
2023-02-11T17:50:00.814Z,54.2
2023-02-11T18:00:00.993Z,55.3
2023-02-11T18:10:00.791Z,54.7
2023-02-11T18:20:00.587Z,55.3
2023-02-11T18:30:00.612Z,54.8
2023-02-11T18:40:01.200Z,54.7
2023-02-11T18:50:00.545Z,55.2
2023-02-11T19:00:00.746Z,55.4
2023-02-11T19:10:00.820Z,55.7
2023-02-11T19:20:00.799Z,56.5
2023-02-11T19:30:00.740Z,58.1
2023-02-11T19:40:00.878Z,60.1
2023-02-11T19:50:00.845Z,60.8
2023-02-11T20:00:01.483Z,60.8
2023-02-11T20:10:00.608Z,61.6
2023-02-11T20:20:00.572Z,62.5
2023-02-11T20:30:00.549Z,62.7
2023-02-11T20:40:00.632Z,64.3
2023-02-11T20:50:00.582Z,68.9
2023-02-11T21:00:00.545Z,70.0
2023-02-11T21:10:00.559Z,71.0
2023-02-11T21:20:00.553Z,71.6
2023-02-11T21:30:00.735Z,71.8
2023-02-11T21:40:00.729Z,71.7
2023-02-11T21:50:00.850Z,72.2
2023-02-11T22:00:00.955Z,73.1
2023-02-11T22:10:00.781Z,75.0
2023-02-11T22:20:00.614Z,76.0
2023-02-11T22:30:00.616Z,76.8
2023-02-11T22:40:00.992Z,77.2
2023-02-11T22:50:00.550Z,77.8
2023-02-11T23:00:00.568Z,78.5
2023-02-11T23:10:00.550Z,79.0
2023-02-11T23:20:00.546Z,79.7
2023-02-11T23:30:00.557Z,80.5
2023-02-11T23:40:00.546Z,80.9
2023-02-11T23:50:00.622Z,81.0
